createdAt,value
2022-08-26T00:04:16.256Z,99883.16
2022-08-26T00:09:18.096Z,99876.72
2022-08-26T00:14:20.506Z,99880.34
2022-08-26T00:19:22.578Z,99879.50
2022-08-26T00:24:24.362Z,99873.47
2022-08-26T00:29:27.027Z,99873.78
2022-08-26T00:34:28.904Z,99881.59
2022-08-26T00:39:31.319Z,99884.09
2022-08-26T00:44:32.880Z,99886.31
2022-08-26T00:49:39.672Z,99885.88
2022-08-26T00:54:46.991Z,99884.53
2022-08-26T00:59:54.307Z,99891.72
2022-08-26T01:05:00.728Z,99891.47
2022-08-26T01:10:07.632Z,99882.63
2022-08-26T01:15:13.667Z,99885.41
2022-08-26T01:20:34.066Z,99871.03
2022-08-26T01:25:40.560Z,99878.81
2022-08-26T01:30:46.722Z,99882.19
2022-08-26T01:35:50.183Z,99880.00
2022-08-26T01:40:54.481Z,99883.03
2022-08-26T01:45:56.966Z,99882.19
2022-08-26T01:51:01.198Z,99895.16
2022-08-26T01:56:04.084Z,99886.06
2022-08-26T02:01:07.625Z,99901.56
2022-08-26T02:06:11.534Z,99892.19
2022-08-26T02:11:15.533Z,99900.19
2022-08-26T02:16:23.767Z,99898.81
2022-08-26T02:21:25.534Z,99892.75
2022-08-26T02:26:27.293Z,99899.13
2022-08-26T02:31:29.454Z,99903.81
2022-08-26T02:36:31.144Z,99907.41
2022-08-26T02:41:33.456Z,99912.06
2022-08-26T02:46:35.402Z,99914.28
2022-08-26T02:51:38.812Z,99904.34
2022-08-26T02:56:41.831Z,99905.47
2022-08-26T03:01:45.161Z,99907.38
2022-08-26T03:06:52.643Z,99899.91
2022-08-26T03:11:55.469Z,99900.47
2022-08-26T03:16:59.554Z,99905.41
2022-08-26T03:22:02.278Z,99909.00
2022-08-26T03:27:07.391Z,99907.88
2022-08-26T03:32:09.715Z,99899.63
2022-08-26T03:37:12.195Z,99903.47
2022-08-26T03:42:14.924Z,99912.81
2022-08-26T03:47:17.354Z,99904.81
2022-08-26T03:52:18.979Z,99904.25
2022-08-26T03:57:20.764Z,99902.31
2022-08-26T04:02:24.375Z,99899.53
2022-08-26T04:07:27.172Z,99911.13
2022-08-26T04:12:29.521Z,99917.44
2022-08-26T04:17:31.340Z,99921.00
2022-08-26T04:22:33.874Z,99921.31
2022-08-26T04:27:35.456Z,99913.00
2022-08-26T04:32:37.508Z,99917.38
2022-08-26T04:37:43.125Z,99919.03
2022-08-26T04:42:44.793Z,99912.97
2022-08-26T04:47:46.802Z,99917.66
2022-08-26T04:52:48.352Z,99907.75
2022-08-26T04:57:49.913Z,99909.75
2022-08-26T05:02:51.907Z,99915.56
2022-08-26T05:07:53.502Z,99921.38
2022-08-26T05:12:55.510Z,99926.38
2022-08-26T05:17:59.196Z,99934.69
2022-08-26T05:23:02.716Z,99939.94
2022-08-26T05:28:04.602Z,99949.94
2022-08-26T05:33:09.094Z,99962.34
2022-08-26T05:38:15.514Z,99974.56
2022-08-26T05:43:17.558Z,99988.56
2022-08-26T05:48:24.181Z,100014.91
2022-08-26T05:53:26.321Z,100025.94
2022-08-26T05:58:28.056Z,100041.59
2022-08-26T06:03:31.802Z,100042.28
2022-08-26T06:08:34.550Z,100058.16
2022-08-26T06:13:37.716Z,100068.81
2022-08-26T06:18:42.427Z,100082.81
2022-08-26T06:24:04.748Z,100073.97
2022-08-26T06:29:07.190Z,100078.00
2022-08-26T06:34:10.961Z,100060.78
2022-08-26T06:39:14.818Z,100069.28
2022-08-26T06:44:16.469Z,100077.69
2022-08-26T06:49:18.530Z,100089.09
2022-08-26T06:54:31.726Z,100091.53
2022-08-26T06:59:33.472Z,100101.31
2022-08-26T07:04:35.917Z,100102.47
2022-08-26T07:09:37.517Z,100102.03
2022-08-26T07:14:39.362Z,100101.00
2022-08-26T07:19:40.955Z,100103.75
2022-08-26T07:24:42.751Z,100120.56
2022-08-26T07:29:46.258Z,100122.88
2022-08-26T07:34:48.265Z,100142.25
2022-08-26T07:39:49.996Z,100142.19
2022-08-26T07:44:51.596Z,100146.50
2022-08-26T07:49:55.714Z,100158.16
2022-08-26T07:54:59.384Z,100159.91
2022-08-26T08:00:02.056Z,100169.69
2022-08-26T08:05:16.924Z,100168.84
2022-08-26T08:10:22.718Z,100166.47
2022-08-26T08:15:28.808Z,100183.56
2022-08-26T08:20:30.552Z,100183.44
2022-08-26T08:25:34.386Z,100192.50
2022-08-26T08:30:39.370Z,100197.66
2022-08-26T08:35:42.444Z,100196.13
2022-08-26T08:40:45.982Z,100193.56
2022-08-26T08:45:52.587Z,100193.38
2022-08-26T08:51:39.724Z,100187.41
2022-08-26T08:56:55.353Z,100174.75
2022-08-26T09:02:03.373Z,100177.41
2022-08-26T09:07:08.857Z,100170.19
2022-08-26T09:12:20.395Z,100179.50
2022-08-26T09:17:43.835Z,100171.78
2022-08-26T09:22:46.119Z,100166.22
2022-08-26T09:27:50.701Z,100163.78
2022-08-26T09:33:00.043Z,100162.03
2022-08-26T09:38:02.674Z,100152.84
2022-08-26T09:43:22.882Z,100153.22
2022-08-26T09:48:35.515Z,100144.38
2022-08-26T09:53:52.260Z,100121.50
2022-08-26T09:58:57.191Z,100123.09
2022-08-26T10:04:12.233Z,100132.22
2022-08-26T10:09:18.179Z,100105.44
2022-08-26T10:14:29.200Z,100111.06
2022-08-26T10:19:55.681Z,100108.84
2022-08-26T10:25:03.342Z,100089.09
2022-08-26T10:30:11.065Z,100097.53
2022-08-26T10:35:15.119Z,100085.84
2022-08-26T10:40:44.992Z,100068.84
2022-08-26T10:45:54.198Z,100040.09
2022-08-26T10:50:56.972Z,100055.53
2022-08-26T10:56:18.857Z,100086.38
2022-08-26T11:01:47.172Z,100094.25
2022-08-26T11:07:31.915Z,100094.81
2022-08-26T11:12:36.423Z,100070.00
2022-08-26T11:17:44.781Z,100060.31
2022-08-26T11:22:47.824Z,100044.97
2022-08-26T11:27:52.350Z,100051.91
2022-08-26T11:32:58.401Z,100048.94
2022-08-26T11:38:12.941Z,100053.97
2022-08-26T11:43:19.435Z,100043.56
2022-08-26T11:48:43.247Z,100037.19
2022-08-26T11:53:45.043Z,100052.25
2022-08-26T11:58:58.003Z,100031.69
2022-08-26T12:04:01.092Z,100013.75
2022-08-26T12:09:10.512Z,100003.63
2022-08-26T12:14:21.688Z,100001.97
2022-08-26T12:19:32.774Z,100034.81
2022-08-26T12:24:35.340Z,100048.38
2022-08-26T12:29:37.212Z,100065.25
2022-08-26T12:34:43.767Z,100084.31
2022-08-26T12:39:45.866Z,100101.31
2022-08-26T12:45:06.456Z,100102.47
2022-08-26T12:50:15.269Z,100080.66
2022-08-26T12:55:19.564Z,100046.81
2022-08-26T13:00:28.436Z,100011.19
2022-08-26T13:05:35.591Z,100046.63
2022-08-26T13:10:39.805Z,100092.16
2022-08-26T13:15:41.432Z,100110.59
2022-08-26T13:20:44.116Z,100075.81
2022-08-26T13:25:45.692Z,100005.47
2022-08-26T13:30:49.618Z,99925.06
2022-08-26T13:35:51.209Z,99876.41
2022-08-26T13:40:52.779Z,99854.09
2022-08-26T13:45:54.584Z,99850.69
2022-08-26T13:50:56.225Z,99831.56
2022-08-26T13:56:01.838Z,99822.34
2022-08-26T14:01:03.661Z,99830.34
2022-08-26T14:06:05.341Z,99839.81
2022-08-26T14:11:07.846Z,99875.81
2022-08-26T14:16:13.609Z,99901.75
2022-08-26T14:21:15.266Z,99877.44
2022-08-26T14:26:28.110Z,99877.16
2022-08-26T14:31:33.016Z,99854.44
2022-08-26T14:36:35.704Z,99813.72
2022-08-26T14:41:54.070Z,99821.50
2022-08-26T14:46:57.345Z,99812.75
2022-08-26T14:51:59.008Z,99790.31
2022-08-26T14:57:04.819Z,99771.78
2022-08-26T15:02:08.122Z,99778.34
2022-08-26T15:07:09.764Z,99799.09
2022-08-26T15:12:14.372Z,99803.63
2022-08-26T15:17:15.931Z,99807.19
2022-08-26T15:22:17.516Z,99820.28
2022-08-26T15:27:19.483Z,99815.06
2022-08-26T15:32:21.097Z,99805.22
2022-08-26T15:37:22.650Z,99814.41
2022-08-26T15:42:24.232Z,99826.81
2022-08-26T15:47:25.781Z,99838.44
2022-08-26T15:52:30.074Z,99828.75
2022-08-26T15:57:32.104Z,99832.63
2022-08-26T16:08:39.315Z,99861.03
2022-08-26T16:13:40.995Z,99874.91
2022-08-26T16:18:43.186Z,99875.66
2022-08-26T16:23:45.586Z,99898.56
2022-08-26T16:28:47.740Z,99919.44
2022-08-26T16:33:51.465Z,99924.03
2022-08-26T16:38:56.056Z,99906.41
2022-08-26T16:43:58.465Z,99906.91
2022-08-26T16:49:03.734Z,99905.25
2022-08-26T16:54:06.992Z,99912.50
2022-08-26T16:59:11.452Z,99930.25
2022-08-26T17:04:13.046Z,99948.00
2022-08-26T17:09:14.597Z,99960.94
2022-08-26T17:14:16.403Z,99926.03
2022-08-26T17:19:20.777Z,99900.19
2022-08-26T17:24:22.325Z,99915.16
2022-08-26T17:29:23.855Z,99932.81
2022-08-26T17:34:25.797Z,99916.50
2022-08-26T17:39:27.386Z,99920.72
2022-08-26T17:44:29.522Z,99934.41
2022-08-26T17:49:31.579Z,99895.91
2022-08-26T17:54:33.178Z,99895.59
2022-08-26T17:59:34.769Z,99892.59
2022-08-26T18:04:36.569Z,99905.38
2022-08-26T18:09:38.120Z,99926.56
2022-08-26T18:14:39.642Z,99937.09
2022-08-26T18:19:41.176Z,99937.91
2022-08-26T18:24:42.735Z,99942.06
2022-08-26T18:29:59.979Z,99957.03
2022-08-26T18:35:02.196Z,99954.31
2022-08-26T18:40:09.111Z,99973.13
2022-08-26T18:45:16.070Z,99977.53
2022-08-26T18:50:18.009Z,99980.28
2022-08-26T18:55:19.613Z,99977.41
2022-08-26T19:00:21.193Z,99986.75
2022-08-26T19:05:22.875Z,99976.75
2022-08-26T19:10:24.912Z,99962.56
2022-08-26T19:15:26.454Z,99961.81
2022-08-26T19:20:27.986Z,99964.88
2022-08-26T19:25:29.560Z,99972.09
2022-08-26T19:30:31.234Z,99969.38
2022-08-26T19:35:34.602Z,99971.59
2022-08-26T19:40:37.586Z,99991.44
2022-08-26T19:45:40.222Z,100004.25
2022-08-26T19:50:42.261Z,100017.31
2022-08-26T19:55:43.825Z,100023.97
2022-08-26T20:00:45.406Z,100028.00
2022-08-26T20:05:47.242Z,100036.91
2022-08-26T20:10:48.990Z,100038.34
2022-08-26T20:15:50.550Z,100043.28
2022-08-26T20:21:10.848Z,100038.25
2022-08-26T20:26:13.227Z,100042.09
2022-08-26T20:31:14.849Z,100057.66
2022-08-26T20:36:16.844Z,100056.50
2022-08-26T20:41:18.537Z,100071.47
2022-08-26T20:46:24.190Z,100068.41
2022-08-26T20:51:27.031Z,100068.69
2022-08-26T20:56:28.565Z,100067.28
2022-08-26T21:01:34.619Z,100075.84
2022-08-26T21:06:38.271Z,100075.31
2022-08-26T21:11:42.707Z,100086.00
2022-08-26T21:16:45.485Z,100081.25
2022-08-26T21:21:48.350Z,100072.72
2022-08-26T21:26:50.027Z,100063.53
2022-08-26T21:31:52.035Z,100069.94
2022-08-26T21:36:53.607Z,100080.16
2022-08-26T21:41:55.154Z,100089.84
2022-08-26T21:46:56.697Z,100093.78
2022-08-26T21:51:58.221Z,100105.22
2022-08-26T21:56:59.851Z,100114.75
2022-08-26T22:02:01.578Z,100117.06
2022-08-26T22:07:03.507Z,100123.16
2022-08-26T22:12:08.923Z,100130.63
2022-08-26T22:17:10.453Z,100141.97
2022-08-26T22:22:13.005Z,100151.38
2022-08-26T22:27:14.578Z,100162.22
2022-08-26T22:32:18.538Z,100163.34
2022-08-26T22:37:20.081Z,100168.06
2022-08-26T22:42:21.669Z,100171.09
2022-08-26T22:47:23.506Z,100170.53
2022-08-26T22:52:25.355Z,100163.31
2022-08-26T22:57:26.977Z,100163.03
2022-08-26T23:02:28.551Z,100164.47
2022-08-26T23:07:30.090Z,100157.03
2022-08-26T23:12:32.530Z,100161.22
2022-08-26T23:17:35.226Z,100161.50
2022-08-26T23:22:37.515Z,100155.13
2022-08-26T23:27:41.337Z,100148.28
2022-08-26T23:32:42.923Z,100160.78
2022-08-26T23:37:46.056Z,100159.91
2022-08-26T23:42:48.809Z,100160.53
2022-08-26T23:47:50.653Z,100149.19
2022-08-26T23:53:08.634Z,100167.75
2022-08-26T23:58:11.346Z,100176.09
